Time;durP1;ratioP1;P1;durP2;ratioP2;P2;SDS_P1;SDS_P2;PMS_P1;PMS_P2;Temp;Humidity;BMP_temperature;BMP_pressure;BME280_temperature;BME280_humidity;BME280_pressure;Samples;Min_cycle;Max_cycle;Signal;HPM_P1;HPM_P2
2022/12/20 00:02:09;;;;;;;34.40;17.93;;;;;;;;;;5057598;28;20304;-25
2022/12/20 00:04:36;;;;;;;40.30;22.77;;;;;;;;;;5052827;28;20644;-26
2022/12/20 00:07:04;;;;;;;40.17;19.83;;;;;;;;;;5055362;28;20240;-26
2022/12/20 00:09:31;;;;;;;32.13;18.50;;;;;;;;;;5065844;28;20219;-27
2022/12/20 00:12:01;;;;;;;36.07;18.27;;;;;;;;;;5059565;28;20220;-26
2022/12/20 00:14:28;;;;;;;32.03;17.97;;;;;;;;;;5058455;28;20209;-26
2022/12/20 00:16:55;;;;;;;34.63;18.27;;;;;;;;;;5062346;28;20198;-27
2022/12/20 00:19:24;;;;;;;34.60;17.47;;;;;;;;;;5052242;28;20222;-25
2022/12/20 00:21:51;;;;;;;30.37;16.40;;;;;;;;;;5056288;28;20222;-25
2022/12/20 00:24:18;;;;;;;31.47;17.83;;;;;;;;;;5064298;28;20265;-24
2022/12/20 00:26:45;;;;;;;41.47;20.77;;;;;;;;;;5062851;28;20197;-26
2022/12/20 00:29:12;;;;;;;33.37;19.70;;;;;;;;;;5062429;28;20455;-25
2022/12/20 00:31:40;;;;;;;29.73;17.60;;;;;;;;;;5058989;28;20230;-26
2022/12/20 00:34:07;;;;;;;34.60;18.13;;;;;;;;;;5050829;28;20202;-25
2022/12/20 00:36:35;;;;;;;32.07;17.33;;;;;;;;;;5052128;28;20217;-26
2022/12/20 00:39:02;;;;;;;31.83;17.90;;;;;;;;;;5056907;28;20202;-25
2022/12/20 00:41:31;;;;;;;31.03;17.33;;;;;;;;;;5057837;28;20226;-26
2022/12/20 00:43:58;;;;;;;29.63;15.13;;;;;;;;;;5064152;28;20205;-26
2022/12/20 00:46:25;;;;;;;29.93;16.20;;;;;;;;;;5071289;28;20197;-26
2022/12/20 00:48:53;;;;;;;30.60;16.93;;;;;;;;;;5054893;28;20260;-26
2022/12/20 00:51:21;;;;;;;32.43;18.33;;;;;;;;;;5052896;28;20242;-24
2022/12/20 00:53:50;;;;;;;30.07;16.03;;;;;;;;;;5053554;28;20201;-27
2022/12/20 00:56:17;;;;;;;27.43;14.47;;;;;;;;;;5063997;28;20201;-26
2022/12/20 00:58:45;;;;;;;24.87;13.93;;;;;;;;;;5066578;28;20208;-27
2022/12/20 01:01:16;;;;;;;25.23;13.60;;;;;;;;;;5056076;28;20225;-26
2022/12/20 01:03:43;;;;;;;27.17;13.70;;;;;;;;;;5051781;28;20535;-25
2022/12/20 01:06:11;;;;;;;33.27;18.00;;;;;;;;;;5058037;28;20212;-26
2022/12/20 01:08:38;;;;;;;26.83;16.47;;;;;;;;;;5056472;28;20214;-26
2022/12/20 01:11:08;;;;;;;31.37;16.80;;;;;;;;;;5054916;28;20220;-28
2022/12/20 01:13:36;;;;;;;30.07;17.00;;;;;;;;;;5055852;28;20216;-28
2022/12/20 01:16:04;;;;;;;29.73;16.10;;;;;;;;;;5057617;28;20201;-25
2022/12/20 01:18:32;;;;;;;33.17;17.23;;;;;;;;;;5071019;28;20636;-27
2022/12/20 01:21:02;;;;;;;32.73;18.23;;;;;;;;;;5065358;28;20229;-27
2022/12/20 01:23:29;;;;;;;32.90;18.17;;;;;;;;;;5055823;28;20233;-25
2022/12/20 01:25:58;;;;;;;34.20;18.13;;;;;;;;;;5057766;28;20210;-26
2022/12/20 01:28:27;;;;;;;31.00;17.43;;;;;;;;;;5064854;28;20202;-25
2022/12/20 01:30:54;;;;;;;38.60;18.40;;;;;;;;;;5050796;28;20301;-26
2022/12/20 01:33:21;;;;;;;30.23;16.57;;;;;;;;;;5051064;28;20232;-26
2022/12/20 01:35:58;;;;;;;30.30;16.37;;;;;;;;;;5054413;28;20679;-26
2022/12/20 01:38:26;;;;;;;30.03;16.13;;;;;;;;;;5057942;28;20201;-25
2022/12/20 01:40:53;;;;;;;37.10;18.93;;;;;;;;;;5060853;28;20225;-27
2022/12/20 01:43:21;;;;;;;36.90;18.07;;;;;;;;;;5058100;28;20535;-25
2022/12/20 01:45:51;;;;;;;30.13;16.93;;;;;;;;;;5062887;28;20196;-25
2022/12/20 01:48:21;;;;;;;34.87;16.90;;;;;;;;;;5070487;28;20209;-26
2022/12/20 01:50:49;;;;;;;31.53;17.80;;;;;;;;;;5062181;28;20254;-25
2022/12/20 01:53:17;;;;;;;32.30;16.80;;;;;;;;;;5061662;28;20205;-27
2022/12/20 01:55:46;;;;;;;30.67;16.37;;;;;;;;;;5063408;28;20205;-27
2022/12/20 01:58:14;;;;;;;32.60;17.23;;;;;;;;;;5058051;28;20233;-26
2022/12/20 02:00:41;;;;;;;29.53;17.40;;;;;;;;;;5055987;28;20221;-27
2022/12/20 02:03:12;;;;;;;35.70;18.03;;;;;;;;;;5051324;28;20258;-27
2022/12/20 02:05:40;;;;;;;33.47;17.47;;;;;;;;;;5057948;28;20202;-25
2022/12/20 02:08:07;;;;;;;29.03;17.07;;;;;;;;;;5048967;28;20217;-27
2022/12/20 02:10:43;;;;;;;26.20;14.20;;;;;;;;;;5050157;28;20308;-26
2022/12/20 02:13:13;;;;;;;22.73;13.97;;;;;;;;;;5058433;28;20208;-27
2022/12/20 02:15:46;;;;;;;24.60;14.00;;;;;;;;;;5052493;28;20204;-27
2022/12/20 02:18:18;;;;;;;22.13;12.97;;;;;;;;;;5070269;28;20209;-25
2022/12/20 02:20:52;;;;;;;30.13;15.47;;;;;;;;;;5059028;28;20231;-26
2022/12/20 02:23:46;;;;;;;25.07;13.93;;;;;;;;;;5060252;28;20227;-26
2022/12/20 02:26:21;;;;;;;24.17;13.63;;;;;;;;;;5043821;28;20202;-26
2022/12/20 02:29:01;;;;;;;26.87;13.53;;;;;;;;;;5059061;28;20205;-26
2022/12/20 02:31:33;;;;;;;25.57;14.23;;;;;;;;;;5049946;28;20214;-26
2022/12/20 02:34:01;;;;;;;29.93;14.90;;;;;;;;;;5050103;28;20212;-26
2022/12/20 02:36:28;;;;;;;27.77;14.87;;;;;;;;;;5048020;28;20659;-27
2022/12/20 02:38:55;;;;;;;29.73;15.67;;;;;;;;;;5055430;28;20208;-27
2022/12/20 02:41:25;;;;;;;29.73;15.57;;;;;;;;;;5049258;28;20229;-26
2022/12/20 02:46:44;;;;;;;29.17;15.30;;;;;;;;;;5066809;28;20270;-26
2022/12/20 02:49:13;;;;;;;27.83;15.37;;;;;;;;;;5069284;28;20205;-25
2022/12/20 02:51:41;;;;;;;24.63;14.83;;;;;;;;;;5059939;28;20342;-26
2022/12/20 02:54:08;;;;;;;27.63;14.50;;;;;;;;;;5059088;28;20224;-26
2022/12/20 02:56:38;;;;;;;23.40;12.33;;;;;;;;;;5049078;28;20202;-26
2022/12/20 02:59:08;;;;;;;19.30;12.00;;;;;;;;;;5061863;28;20205;-26
2022/12/20 03:01:38;;;;;;;24.20;13.97;;;;;;;;;;5056353;28;20240;-26
2022/12/20 03:04:07;;;;;;;26.70;15.30;;;;;;;;;;5058494;28;20225;-26
2022/12/20 03:06:34;;;;;;;24.27;14.60;;;;;;;;;;5056635;28;20206;-25
2022/12/20 03:09:01;;;;;;;25.53;13.93;;;;;;;;;;5062562;28;20206;-26
2022/12/20 03:11:29;;;;;;;28.17;15.73;;;;;;;;;;5058689;28;20217;-26
2022/12/20 03:13:56;;;;;;;24.20;14.90;;;;;;;;;;5063260;28;20575;-26
2022/12/20 03:16:23;;;;;;;22.40;13.13;;;;;;;;;;5056256;28;20220;-25
2022/12/20 03:18:50;;;;;;;22.33;11.40;;;;;;;;;;5051482;28;20208;-27
2022/12/20 03:21:19;;;;;;;24.27;14.47;;;;;;;;;;5068892;28;20236;-27
2022/12/20 03:23:46;;;;;;;27.20;14.77;;;;;;;;;;5060217;28;20199;-27
2022/12/20 03:26:13;;;;;;;25.97;13.63;;;;;;;;;;5059375;28;20321;-25
2022/12/20 03:28:40;;;;;;;21.80;12.07;;;;;;;;;;5054571;28;20206;-26
2022/12/20 03:31:07;;;;;;;24.23;13.43;;;;;;;;;;5052368;28;20589;-26
2022/12/20 03:33:35;;;;;;;26.97;14.40;;;;;;;;;;5053207;28;20206;-26
2022/12/20 03:36:02;;;;;;;21.67;13.17;;;;;;;;;;5051868;28;20655;-26
2022/12/20 03:38:30;;;;;;;26.53;13.37;;;;;;;;;;5071861;28;20242;-28
2022/12/20 03:40:57;;;;;;;25.47;14.17;;;;;;;;;;5063468;28;20608;-25
2022/12/20 03:43:24;;;;;;;22.83;12.83;;;;;;;;;;5051820;28;20218;-28
2022/12/20 03:45:51;;;;;;;26.80;14.67;;;;;;;;;;5060400;28;20197;-26
2022/12/20 03:48:18;;;;;;;23.00;13.57;;;;;;;;;;5052673;28;20280;-25
2022/12/20 03:50:45;;;;;;;23.30;13.03;;;;;;;;;;5051864;28;20220;-26
2022/12/20 03:53:13;;;;;;;26.10;13.10;;;;;;;;;;5062431;28;20197;-27
2022/12/20 03:55:41;;;;;;;20.93;13.20;;;;;;;;;;5069784;28;20210;-26
2022/12/20 03:58:08;;;;;;;22.00;12.83;;;;;;;;;;5056878;28;20225;-26
2022/12/20 04:00:35;;;;;;;23.67;12.97;;;;;;;;;;5060744;28;20232;-25
2022/12/20 04:03:03;;;;;;;21.17;13.33;;;;;;;;;;5052942;28;20205;-25
2022/12/20 04:05:30;;;;;;;23.03;13.10;;;;;;;;;;5057127;28;20667;-27
2022/12/20 04:07:57;;;;;;;22.37;12.90;;;;;;;;;;5062309;28;20197;-26
2022/12/20 04:10:24;;;;;;;23.93;15.27;;;;;;;;;;5063012;28;20205;-26
2022/12/20 04:12:52;;;;;;;21.43;12.93;;;;;;;;;;5062340;28;20556;-26
2022/12/20 04:15:19;;;;;;;20.17;12.03;;;;;;;;;;5054717;28;20744;-25
2022/12/20 04:17:46;;;;;;;26.87;13.97;;;;;;;;;;5070938;28;20209;-28
2022/12/20 04:20:20;;;;;;;27.87;14.67;;;;;;;;;;5071058;28;20197;-26
2022/12/20 04:22:47;;;;;;;25.43;13.13;;;;;;;;;;5056263;28;20205;-26
2022/12/20 04:25:15;;;;;;;21.23;12.53;;;;;;;;;;5051965;28;20213;-28
2022/12/20 04:27:42;;;;;;;24.10;12.67;;;;;;;;;;5059116;28;20198;-25
2022/12/20 04:30:12;;;;;;;28.33;14.10;;;;;;;;;;5141337;23;20230;-27
2022/12/20 04:32:39;;;;;;;22.27;12.87;;;;;;;;;;5049500;28;20678;-26
2022/12/20 04:35:07;;;;;;;19.50;11.60;;;;;;;;;;5043386;28;20210;-28
2022/12/20 04:37:34;;;;;;;22.63;12.63;;;;;;;;;;5030176;28;20687;-30
2022/12/20 04:40:01;;;;;;;27.57;13.53;;;;;;;;;;5025583;28;20203;-27
2022/12/20 04:42:28;;;;;;;25.10;14.20;;;;;;;;;;5018892;28;20603;-29
2022/12/20 04:44:55;;;;;;;16.90;10.53;;;;;;;;;;5029697;28;20211;-29
2022/12/20 04:47:25;;;;;;;23.30;11.77;;;;;;;;;;5037147;28;20202;-27
2022/12/20 04:49:52;;;;;;;22.03;12.83;;;;;;;;;;5034335;28;20683;-25
2022/12/20 04:55:04;;;;;;;20.83;13.23;;;;;;;;;;5028125;28;20277;-27
2022/12/20 04:57:31;;;;;;;24.27;12.27;;;;;;;;;;5027373;28;20582;-29
2022/12/20 04:59:58;;;;;;;27.03;14.33;;;;;;;;;;5028844;28;20206;-26
2022/12/20 05:02:27;;;;;;;21.13;13.10;;;;;;;;;;5031075;28;20227;-30
2022/12/20 05:04:54;;;;;;;20.60;11.80;;;;;;;;;;5031955;28;20211;-25
2022/12/20 05:07:21;;;;;;;18.80;12.87;;;;;;;;;;5024337;28;20293;-26
2022/12/20 05:09:48;;;;;;;24.27;13.77;;;;;;;;;;5027569;28;20203;-28
2022/12/20 05:12:15;;;;;;;25.63;13.60;;;;;;;;;;5027871;28;20227;-29
2022/12/20 05:14:42;;;;;;;20.60;13.40;;;;;;;;;;5024478;28;20203;-27
2022/12/20 05:17:09;;;;;;;25.90;13.63;;;;;;;;;;5026803;28;20209;-28
2022/12/20 05:19:38;;;;;;;24.90;14.33;;;;;;;;;;5032627;28;20650;-27
2022/12/20 05:27:34;;;;;;;19.17;12.63;;;;;;;;;;5022256;28;20247;-29
2022/12/20 05:30:01;;;;;;;21.17;11.67;;;;;;;;;;5034862;28;20224;-28
2022/12/20 05:32:29;;;;;;;25.17;12.63;;;;;;;;;;5031599;28;20218;-26
2022/12/20 05:34:57;;;;;;;25.90;17.97;;;;;;;;;;5025701;28;20543;-27
2022/12/20 05:37:24;;;;;;;25.17;14.33;;;;;;;;;;5020189;28;20266;-27
2022/12/20 05:39:51;;;;;;;23.13;14.37;;;;;;;;;;5030103;28;20205;-31
2022/12/20 05:42:19;;;;;;;25.53;13.23;;;;;;;;;;5016016;28;20226;-27
2022/12/20 05:44:46;;;;;;;21.00;12.23;;;;;;;;;;5028338;28;20218;-25
2022/12/20 05:47:15;;;;;;;24.60;13.73;;;;;;;;;;5030221;28;20203;-26
2022/12/20 05:49:43;;;;;;;25.27;13.17;;;;;;;;;;5027455;28;20218;-28
2022/12/20 05:52:11;;;;;;;20.83;12.77;;;;;;;;;;5028861;28;20226;-29
2022/12/20 05:54:39;;;;;;;24.30;13.37;;;;;;;;;;5029356;28;20233;-26
2022/12/20 05:57:06;;;;;;;20.50;12.27;;;;;;;;;;5023417;28;20204;-29
2022/12/20 05:59:33;;;;;;;27.23;14.33;;;;;;;;;;5027205;28;20221;-30
2022/12/20 06:02:02;;;;;;;24.03;13.33;;;;;;;;;;5030117;28;20268;-28
2022/12/20 06:04:29;;;;;;;21.97;12.83;;;;;;;;;;5034067;28;20202;-29
2022/12/20 06:06:56;;;;;;;21.30;12.77;;;;;;;;;;5028107;28;20209;-29
2022/12/20 06:09:24;;;;;;;19.27;11.73;;;;;;;;;;5030911;28;20202;-26
2022/12/20 06:11:52;;;;;;;21.60;12.03;;;;;;;;;;5022122;28;20591;-28
2022/12/20 06:14:19;;;;;;;22.60;13.40;;;;;;;;;;5026321;28;20202;-28
2022/12/20 06:16:46;;;;;;;18.90;12.70;;;;;;;;;;5036491;28;20661;-26
2022/12/20 06:19:14;;;;;;;21.40;12.30;;;;;;;;;;5029349;28;20202;-28
2022/12/20 06:21:41;;;;;;;22.70;12.87;;;;;;;;;;5017938;28;20231;-25
2022/12/20 06:24:08;;;;;;;21.23;12.97;;;;;;;;;;5028297;28;20397;-26
2022/12/20 06:26:36;;;;;;;22.43;13.07;;;;;;;;;;5024403;28;20215;-30
2022/12/20 06:29:05;;;;;;;21.93;13.77;;;;;;;;;;5023816;28;20289;-27
2022/12/20 06:31:33;;;;;;;20.43;12.87;;;;;;;;;;5029752;28;20313;-30
2022/12/20 06:34:00;;;;;;;19.30;12.63;;;;;;;;;;5028299;28;20680;-26
2022/12/20 06:36:27;;;;;;;22.83;13.50;;;;;;;;;;5022617;28;20665;-26
2022/12/20 06:38:54;;;;;;;20.53;13.03;;;;;;;;;;5029091;28;20198;-29
2022/12/20 06:41:28;;;;;;;18.57;11.33;;;;;;;;;;5023037;28;20233;-29
2022/12/20 06:43:57;;;;;;;21.67;12.33;;;;;;;;;;5026272;28;20197;-27
2022/12/20 06:46:24;;;;;;;20.30;11.87;;;;;;;;;;5037085;28;20199;-29
2022/12/20 06:48:53;;;;;;;19.77;12.10;;;;;;;;;;5035256;28;20245;-30
2022/12/20 06:51:21;;;;;;;18.53;11.20;;;;;;;;;;5038314;28;20249;-29
2022/12/20 06:53:48;;;;;;;21.50;12.53;;;;;;;;;;5036218;28;20202;-26
2022/12/20 06:56:15;;;;;;;24.00;13.13;;;;;;;;;;5032253;28;20207;-28
2022/12/20 06:58:42;;;;;;;23.33;12.13;;;;;;;;;;5027525;28;20213;-27
2022/12/20 07:01:10;;;;;;;21.83;11.80;;;;;;;;;;5034842;28;20225;-25
2022/12/20 07:03:37;;;;;;;21.57;12.40;;;;;;;;;;5031232;28;20208;-27
2022/12/20 07:06:05;;;;;;;25.33;12.97;;;;;;;;;;5024295;28;20210;-25
2022/12/20 07:08:32;;;;;;;22.57;11.87;;;;;;;;;;5023181;28;20424;-29
2022/12/20 07:11:03;;;;;;;22.17;9.97;;;;;;;;;;5031877;28;20329;-30
2022/12/20 07:13:30;;;;;;;21.27;12.03;;;;;;;;;;5023207;28;20214;-26
2022/12/20 07:15:59;;;;;;;19.43;11.53;;;;;;;;;;5033345;28;20202;-26
2022/12/20 07:18:27;;;;;;;23.13;13.07;;;;;;;;;;5033638;28;20210;-26
2022/12/20 07:20:54;;;;;;;20.43;11.50;;;;;;;;;;5027885;28;20225;-27
2022/12/20 07:23:22;;;;;;;19.33;12.27;;;;;;;;;;5033014;28;20219;-27
2022/12/20 07:25:54;;;;;;;19.83;11.53;;;;;;;;;;5033505;28;20203;-27
2022/12/20 07:28:21;;;;;;;19.37;10.70;;;;;;;;;;5024754;28;20574;-25
2022/12/20 07:30:48;;;;;;;18.93;10.80;;;;;;;;;;5032846;28;20226;-28
2022/12/20 07:33:15;;;;;;;21.93;11.17;;;;;;;;;;5033660;28;20217;-31
2022/12/20 07:35:44;;;;;;;27.37;13.23;;;;;;;;;;5022892;28;20202;-30
2022/12/20 07:38:11;;;;;;;20.33;11.23;;;;;;;;;;5024262;28;20724;-28
2022/12/20 07:40:41;;;;;;;23.00;12.30;;;;;;;;;;5032805;28;20340;-26
2022/12/20 07:43:08;;;;;;;21.27;12.37;;;;;;;;;;5023869;28;20280;-31
2022/12/20 07:45:36;;;;;;;21.33;11.90;;;;;;;;;;5032571;28;20460;-27
2022/12/20 07:48:03;;;;;;;23.10;11.93;;;;;;;;;;5033225;28;20219;-26
2022/12/20 07:50:32;;;;;;;19.50;11.90;;;;;;;;;;5019873;28;20211;-30
2022/12/20 07:53:00;;;;;;;16.93;11.83;;;;;;;;;;5027517;28;20575;-25
2022/12/20 07:55:30;;;;;;;20.03;12.37;;;;;;;;;;5032315;28;20234;-26
2022/12/20 07:57:58;;;;;;;18.17;11.80;;;;;;;;;;5028539;28;20206;-26
2022/12/20 08:00:26;;;;;;;20.40;12.07;;;;;;;;;;5030152;28;20205;-32
2022/12/20 08:02:56;;;;;;;19.17;10.77;;;;;;;;;;5033264;28;20313;-25
2022/12/20 08:05:24;;;;;;;18.73;10.83;;;;;;;;;;5025918;28;20213;-28
2022/12/20 08:07:52;;;;;;;20.73;11.73;;;;;;;;;;5032517;28;20261;-27
2022/12/20 08:10:21;;;;;;;29.07;17.57;;;;;;;;;;5027373;28;20198;-28
2022/12/20 08:12:49;;;;;;;24.50;13.03;;;;;;;;;;5022471;28;20276;-26
2022/12/20 08:15:16;;;;;;;23.13;12.73;;;;;;;;;;5033027;28;20203;-27
2022/12/20 08:17:43;;;;;;;25.67;14.37;;;;;;;;;;5034859;28;20203;-27
2022/12/20 08:20:11;;;;;;;18.80;12.20;;;;;;;;;;5026863;28;20217;-27
2022/12/20 08:22:38;;;;;;;23.97;14.00;;;;;;;;;;5029553;28;20226;-29
2022/12/20 08:25:05;;;;;;;24.50;13.90;;;;;;;;;;5031576;28;20203;-29
2022/12/20 08:27:34;;;;;;;20.77;12.43;;;;;;;;;;5028346;28;20203;-27
2022/12/20 08:30:01;;;;;;;30.13;16.93;;;;;;;;;;5030867;28;20211;-29
2022/12/20 08:32:28;;;;;;;32.43;18.87;;;;;;;;;;5031339;28;20236;-29
2022/12/20 08:34:55;;;;;;;26.20;16.93;;;;;;;;;;5021853;28;20206;-27
2022/12/20 08:37:22;;;;;;;28.47;15.53;;;;;;;;;;5028073;28;20209;-28
2022/12/20 08:39:50;;;;;;;26.10;15.07;;;;;;;;;;5030285;28;20203;-32
2022/12/20 08:42:17;;;;;;;27.07;15.60;;;;;;;;;;5021084;28;20234;-29
2022/12/20 08:44:45;;;;;;;25.43;13.37;;;;;;;;;;5031057;28;20207;-29
2022/12/20 08:47:22;;;;;;;21.63;13.03;;;;;;;;;;5032334;28;20199;-30
2022/12/20 08:49:49;;;;;;;23.20;12.47;;;;;;;;;;5032306;28;20233;-29
2022/12/20 08:52:17;;;;;;;20.27;12.30;;;;;;;;;;5030787;28;20852;-30
2022/12/20 08:54:44;;;;;;;21.97;12.77;;;;;;;;;;5024981;28;20539;-31
2022/12/20 08:57:11;;;;;;;22.17;12.17;;;;;;;;;;5024581;28;20205;-29
2022/12/20 08:59:38;;;;;;;20.63;12.30;;;;;;;;;;5026589;28;20310;-26
2022/12/20 09:02:06;;;;;;;18.57;11.20;;;;;;;;;;5022554;28;20606;-28
2022/12/20 09:04:34;;;;;;;18.77;13.03;;;;;;;;;;5026204;28;20214;-28
2022/12/20 09:07:01;;;;;;;22.07;12.70;;;;;;;;;;5020249;28;20207;-26
2022/12/20 09:09:28;;;;;;;19.93;12.30;;;;;;;;;;5028676;28;20209;-27
2022/12/20 09:11:56;;;;;;;24.70;14.27;;;;;;;;;;5022260;28;20229;-26
2022/12/20 09:14:23;;;;;;;24.60;13.63;;;;;;;;;;5030314;28;20637;-27
2022/12/20 09:16:50;;;;;;;24.50;13.70;;;;;;;;;;5031285;28;20672;-31
2022/12/20 09:19:19;;;;;;;21.37;12.53;;;;;;;;;;5030912;28;20344;-28
2022/12/20 09:21:46;;;;;;;19.63;11.07;;;;;;;;;;5023304;28;20230;-30
2022/12/20 09:24:13;;;;;;;22.40;12.70;;;;;;;;;;5030622;28;20213;-29
2022/12/20 09:26:40;;;;;;;21.70;12.17;;;;;;;;;;5022106;28;20203;-28
2022/12/20 09:29:07;;;;;;;19.53;12.57;;;;;;;;;;5023276;28;20203;-29
2022/12/20 09:31:35;;;;;;;21.97;13.37;;;;;;;;;;5026339;28;20238;-28
2022/12/20 09:34:02;;;;;;;30.97;16.07;;;;;;;;;;5015330;28;20632;-29
2022/12/20 09:36:31;;;;;;;28.07;15.80;;;;;;;;;;5018494;28;20207;-28
2022/12/20 09:38:58;;;;;;;27.77;16.03;;;;;;;;;;5030564;28;20649;-27
2022/12/20 09:41:29;;;;;;;27.07;15.80;;;;;;;;;;5026434;28;20439;-27
2022/12/20 09:43:56;;;;;;;27.97;16.90;;;;;;;;;;5023981;28;20227;-26
2022/12/20 09:46:24;;;;;;;24.63;15.20;;;;;;;;;;5027838;28;20202;-27
2022/12/20 09:48:51;;;;;;;30.87;18.37;;;;;;;;;;5025613;28;20676;-28
2022/12/20 09:51:25;;;;;;;28.00;17.20;;;;;;;;;;5022269;28;20230;-29
2022/12/20 09:54:02;;;;;;;27.40;16.57;;;;;;;;;;5029513;28;20206;-26
2022/12/20 09:56:31;;;;;;;26.93;16.30;;;;;;;;;;5016018;28;20213;-28
2022/12/20 09:58:59;;;;;;;27.73;16.30;;;;;;;;;;5023328;28;20653;-31
2022/12/20 10:01:28;;;;;;;27.07;16.17;;;;;;;;;;5031800;28;20219;-29
2022/12/20 10:03:56;;;;;;;27.63;15.33;;;;;;;;;;5032552;28;20230;-29
2022/12/20 10:06:27;;;;;;;31.47;16.77;;;;;;;;;;5029555;28;20218;-27
2022/12/20 10:08:57;;;;;;;24.13;15.27;;;;;;;;;;5032644;28;20202;-27
2022/12/20 10:11:43;;;;;;;27.97;16.00;;;;;;;;;;5026813;28;20716;-29
2022/12/20 10:14:17;;;;;;;31.80;15.73;;;;;;;;;;5023087;28;20198;-26
2022/12/20 10:16:46;;;;;;;28.17;16.93;;;;;;;;;;5030829;28;20202;-28
2022/12/20 10:19:22;;;;;;;24.80;14.90;;;;;;;;;;5027539;28;20213;-29
2022/12/20 10:21:53;;;;;;;20.83;14.40;;;;;;;;;;5021997;28;20305;-31
2022/12/20 10:24:25;;;;;;;25.73;14.47;;;;;;;;;;5027279;28;20229;-33
2022/12/20 10:26:53;;;;;;;23.90;14.37;;;;;;;;;;5021239;28;20207;-28
2022/12/20 10:29:21;;;;;;;22.00;12.90;;;;;;;;;;5028950;28;20206;-29
2022/12/20 10:31:49;;;;;;;20.80;12.20;;;;;;;;;;5033306;28;20234;-29
2022/12/20 10:34:16;;;;;;;22.83;12.47;;;;;;;;;;5033223;28;20202;-29
2022/12/20 10:36:43;;;;;;;22.03;12.50;;;;;;;;;;5023916;28;20297;-31
2022/12/20 10:39:11;;;;;;;25.47;14.13;;;;;;;;;;5269319;23;20710;-27
2022/12/20 10:41:50;;;;;;;23.47;13.77;;;;;;;;;;5049961;28;20715;-27
2022/12/20 10:44:19;;;;;;;25.93;15.10;;;;;;;;;;5044738;28;20218;-27
2022/12/20 10:46:47;;;;;;;24.67;13.47;;;;;;;;;;5048687;28;20209;-28
2022/12/20 10:49:29;;;;;;;21.30;13.10;;;;;;;;;;5045094;28;20231;-26
2022/12/20 10:51:57;;;;;;;24.90;13.50;;;;;;;;;;5045311;28;20221;-27
2022/12/20 10:54:25;;;;;;;23.73;14.17;;;;;;;;;;5046059;28;20676;-27
2022/12/20 10:56:58;;;;;;;24.90;14.93;;;;;;;;;;5044492;28;20198;-28
2022/12/20 10:59:29;;;;;;;27.13;14.23;;;;;;;;;;5045414;28;20660;-28
2022/12/20 11:01:56;;;;;;;21.27;14.00;;;;;;;;;;5048902;28;20210;-28
2022/12/20 11:04:26;;;;;;;22.57;13.27;;;;;;;;;;5043299;28;20225;-26
2022/12/20 11:06:54;;;;;;;25.23;14.40;;;;;;;;;;5046816;28;20225;-26
2022/12/20 11:09:26;;;;;;;21.87;13.53;;;;;;;;;;5048038;28;20517;-28
2022/12/20 11:12:02;;;;;;;24.10;14.20;;;;;;;;;;5041414;28;20599;-28
2022/12/20 11:14:29;;;;;;;27.40;14.73;;;;;;;;;;5044959;28;20202;-27
2022/12/20 11:16:58;;;;;;;23.73;14.93;;;;;;;;;;5045838;28;20602;-26
2022/12/20 11:19:35;;;;;;;25.50;14.00;;;;;;;;;;5045144;28;20292;-26
2022/12/20 11:22:06;;;;;;;22.47;14.13;;;;;;;;;;5040383;28;20222;-26
2022/12/20 11:24:36;;;;;;;24.53;14.23;;;;;;;;;;5044864;28;20582;-29
2022/12/20 11:27:20;;;;;;;23.27;13.83;;;;;;;;;;5041130;28;20225;-28
2022/12/20 11:29:56;;;;;;;28.63;15.23;;;;;;;;;;5047575;28;20205;-27
2022/12/20 11:32:29;;;;;;;29.27;14.20;;;;;;;;;;5050471;28;20222;-26
2022/12/20 11:35:03;;;;;;;25.33;15.50;;;;;;;;;;5051872;28;20214;-28
2022/12/20 11:37:34;;;;;;;30.30;15.60;;;;;;;;;;5044144;28;20247;-26
2022/12/20 11:40:12;;;;;;;26.23;15.07;;;;;;;;;;5047925;28;20679;-27
2022/12/20 11:42:46;;;;;;;27.70;15.20;;;;;;;;;;5043742;28;20214;-28
2022/12/20 11:45:16;;;;;;;21.33;13.67;;;;;;;;;;5051002;28;20194;-25
2022/12/20 11:47:59;;;;;;;26.43;15.00;;;;;;;;;;5054853;28;20198;-26
2022/12/20 11:50:35;;;;;;;25.90;15.23;;;;;;;;;;5037907;28;20199;-26
2022/12/20 11:53:06;;;;;;;27.87;15.43;;;;;;;;;;5041244;28;20205;-26
2022/12/20 11:55:35;;;;;;;26.03;14.97;;;;;;;;;;5054417;28;20206;-26
2022/12/20 11:58:11;;;;;;;19.37;13.50;;;;;;;;;;5039771;28;20202;-26
2022/12/20 12:00:39;;;;;;;18.47;13.23;;;;;;;;;;5050037;28;20226;-27
2022/12/20 12:03:12;;;;;;;23.60;14.67;;;;;;;;;;5053918;28;20222;-27
2022/12/20 12:05:42;;;;;;;23.07;14.53;;;;;;;;;;5052215;28;20205;-28
2022/12/20 12:08:13;;;;;;;28.27;15.30;;;;;;;;;;5045586;28;20198;-26
2022/12/20 12:10:41;;;;;;;22.20;14.30;;;;;;;;;;5054002;28;20222;-27
2022/12/20 12:13:16;;;;;;;27.10;15.90;;;;;;;;;;5041288;28;20240;-28
2022/12/20 12:15:49;;;;;;;27.33;14.77;;;;;;;;;;5053334;28;20317;-27
2022/12/20 12:18:18;;;;;;;24.83;15.23;;;;;;;;;;5054460;28;20814;-27
2022/12/20 12:20:49;;;;;;;29.07;15.17;;;;;;;;;;5049083;28;20230;-26
2022/12/20 12:23:22;;;;;;;24.43;15.07;;;;;;;;;;5047728;28;20734;-28
2022/12/20 12:25:49;;;;;;;28.40;16.07;;;;;;;;;;5052176;28;20202;-26
2022/12/20 12:28:19;;;;;;;27.77;16.13;;;;;;;;;;5045718;28;20210;-26
2022/12/20 12:30:49;;;;;;;30.00;16.17;;;;;;;;;;5053130;28;20237;-27
2022/12/20 12:33:18;;;;;;;23.07;15.27;;;;;;;;;;5052676;28;20198;-28
2022/12/20 12:35:56;;;;;;;31.33;17.57;;;;;;;;;;5046775;28;20202;-26
2022/12/20 12:38:31;;;;;;;25.80;15.10;;;;;;;;;;5050035;28;20225;-27
2022/12/20 12:41:10;;;;;;;23.10;15.27;;;;;;;;;;5050552;28;20228;-27
2022/12/20 12:43:52;;;;;;;23.83;14.80;;;;;;;;;;5047390;28;20214;-26
2022/12/20 12:46:22;;;;;;;28.83;16.50;;;;;;;;;;5054169;28;20575;-27
2022/12/20 12:48:53;;;;;;;32.03;18.97;;;;;;;;;;5052900;28;20202;-27
2022/12/20 12:51:23;;;;;;;29.60;18.93;;;;;;;;;;5045488;28;20234;-28
2022/12/20 12:53:52;;;;;;;28.10;17.40;;;;;;;;;;5046264;28;20193;-25
2022/12/20 12:56:30;;;;;;;31.97;21.33;;;;;;;;;;5049884;28;20210;-28
2022/12/20 12:59:21;;;;;;;36.77;22.37;;;;;;;;;;5043424;28;20464;-25
2022/12/20 13:01:49;;;;;;;34.60;21.17;;;;;;;;;;5050465;28;20230;-26
2022/12/20 13:04:24;;;;;;;28.83;17.27;;;;;;;;;;5053901;28;20753;-26
2022/12/20 13:06:56;;;;;;;26.20;14.53;;;;;;;;;;5050149;28;20201;-27
2022/12/20 13:09:36;;;;;;;25.80;15.87;;;;;;;;;;5050532;28;20202;-27
2022/12/20 13:12:18;;;;;;;24.27;15.07;;;;;;;;;;5043253;28;20722;-25
2022/12/20 13:14:50;;;;;;;23.50;14.97;;;;;;;;;;5048646;28;20205;-28
2022/12/20 13:17:32;;;;;;;25.83;16.00;;;;;;;;;;5053384;28;20202;-26
2022/12/20 13:19:59;;;;;;;24.70;15.57;;;;;;;;;;5046820;28;20205;-26
2022/12/20 13:22:27;;;;;;;24.07;15.63;;;;;;;;;;5050565;28;20218;-26
2022/12/20 13:24:56;;;;;;;26.10;15.90;;;;;;;;;;5053219;28;20218;-26
2022/12/20 13:27:24;;;;;;;28.73;16.67;;;;;;;;;;5046686;28;20210;-26
2022/12/20 13:29:55;;;;;;;21.43;14.33;;;;;;;;;;5050719;28;20206;-26
2022/12/20 13:32:40;;;;;;;25.07;15.03;;;;;;;;;;5053519;28;20224;-25
2022/12/20 13:35:28;;;;;;;25.33;14.90;;;;;;;;;;5044421;28;20633;-27
2022/12/20 13:37:56;;;;;;;26.90;15.13;;;;;;;;;;5046237;28;20672;-26
2022/12/20 13:40:25;;;;;;;23.17;15.27;;;;;;;;;;5052426;28;20306;-26
2022/12/20 13:42:55;;;;;;;26.10;15.03;;;;;;;;;;5049405;28;20217;-27
2022/12/20 13:45:24;;;;;;;28.70;16.13;;;;;;;;;;5051708;28;20214;-28
2022/12/20 13:47:56;;;;;;;30.20;17.27;;;;;;;;;;5052749;28;20664;-27
2022/12/20 13:50:34;;;;;;;27.80;16.73;;;;;;;;;;5046678;28;20203;-27
2022/12/20 13:53:02;;;;;;;28.53;15.83;;;;;;;;;;5044114;28;20206;-28
2022/12/20 13:55:33;;;;;;;31.57;16.83;;;;;;;;;;5052529;28;20252;-26
2022/12/20 13:58:05;;;;;;;28.80;17.47;;;;;;;;;;5041117;28;20566;-26
2022/12/20 14:00:33;;;;;;;24.47;15.60;;;;;;;;;;5050403;28;20204;-26
2022/12/20 14:03:01;;;;;;;31.50;16.53;;;;;;;;;;5053197;28;20210;-28
2022/12/20 14:05:32;;;;;;;29.00;16.23;;;;;;;;;;5045879;28;20225;-27
2022/12/20 14:08:00;;;;;;;25.17;14.80;;;;;;;;;;5052146;28;20456;-27
2022/12/20 14:10:28;;;;;;;24.77;15.47;;;;;;;;;;5047284;28;20207;-26
2022/12/20 14:12:56;;;;;;;21.83;15.40;;;;;;;;;;5039986;28;20198;-26
2022/12/20 14:15:25;;;;;;;25.03;15.03;;;;;;;;;;5051525;28;20197;-27
2022/12/20 14:17:53;;;;;;;26.97;15.03;;;;;;;;;;5032744;28;20217;-26
2022/12/20 14:20:23;;;;;;;24.87;15.40;;;;;;;;;;5030822;28;20575;-26
2022/12/20 14:22:53;;;;;;;24.83;16.33;;;;;;;;;;5043983;28;20210;-27
2022/12/20 14:25:28;;;;;;;24.87;16.00;;;;;;;;;;5052098;28;20228;-27
2022/12/20 14:27:55;;;;;;;24.47;17.07;;;;;;;;;;5041192;28;20213;-27
2022/12/20 14:30:27;;;;;;;27.00;16.60;;;;;;;;;;5051583;28;20260;-26
2022/12/20 14:32:56;;;;;;;30.80;18.57;;;;;;;;;;5052259;28;20210;-26
2022/12/20 14:35:23;;;;;;;26.73;18.40;;;;;;;;;;5049963;28;20206;-26
2022/12/20 14:37:54;;;;;;;26.17;15.90;;;;;;;;;;5040478;28;20207;-26
2022/12/20 14:40:21;;;;;;;25.77;15.83;;;;;;;;;;5048134;28;20675;-27